Time;durP1;ratioP1;P1;durP2;ratioP2;P2;SDS_P1;SDS_P2;PMS_P1;PMS_P2;Temp;Humidity;BMP_temperature;BMP_pressure;BME280_temperature;BME280_humidity;BME280_pressure;Samples;Min_cycle;Max_cycle;Signal;HPM_P1;HPM_P2
2022/05/10 00:00:57;;;;;;;6.10;3.20;;;;;;;13.47;56.81;101881.69;2081329;28;20179;-69
2022/05/10 00:01:58;;;;;;;5.70;3.53;;;;;;;13.53;57.13;101891.91;2081522;28;20240;-69
2022/05/10 00:03:01;;;;;;;5.00;3.47;;;;;;;13.47;57.12;101895.63;2081620;28;20419;-69
2022/05/10 00:04:04;;;;;;;5.90;3.43;;;;;;;13.45;57.19;101896.03;2080934;28;20246;-69
2022/05/10 00:05:06;;;;;;;6.83;3.50;;;;;;;12.53;57.02;101747.50;2080578;28;20944;-69
2022/05/10 00:06:07;;;;;;;6.87;3.57;;;;;;;13.41;57.12;101898.09;2081648;28;20408;-69
2022/05/10 00:07:08;;;;;;;4.40;3.07;;;;;;;13.11;57.03;101850.03;2081704;28;20939;-69
2022/05/10 00:08:11;;;;;;;5.53;3.10;;;;;;;13.34;56.58;101886.25;2081516;28;20266;-69
2022/05/10 00:09:14;;;;;;;5.17;3.50;;;;;;;12.62;56.65;101783.94;2081833;28;20176;-69
2022/05/10 00:10:14;;;;;;;5.10;3.63;;;;;;;13.27;57.08;101889.16;2081247;28;20961;-69
2022/05/10 00:11:14;;;;;;;7.30;3.57;;;;;;;13.21;57.07;101896.41;2081627;28;20868;-69
2022/05/10 00:12:15;;;;;;;10.43;3.87;;;;;;;12.39;57.06;101769.94;2081572;28;20181;-69
2022/05/10 00:13:16;;;;;;;9.93;4.13;;;;;;;13.09;57.11;101883.84;2081471;28;20558;-69
2022/05/10 00:14:17;;;;;;;5.53;3.60;;;;;;;13.11;56.84;101889.78;2081661;28;20932;-69
2022/05/10 00:15:18;;;;;;;7.73;4.07;;;;;;;13.11;57.16;101889.78;2086388;28;20261;-69
2022/05/10 00:16:18;;;;;;;6.53;3.70;;;;;;;13.02;57.24;101874.81;2090015;28;20624;-69
2022/05/10 00:17:28;;;;;;;9.73;4.13;;;;;;;13.04;57.35;101887.09;2089661;28;20174;-69
2022/05/10 00:18:29;;;;;;;8.27;3.50;;;;;;;13.05;57.18;101890.66;2089680;28;20181;-69
2022/05/10 00:19:30;;;;;;;7.13;4.17;;;;;;;12.87;56.88;101865.06;2090013;28;20429;-69
2022/05/10 00:20:31;;;;;;;6.10;3.70;;;;;;;12.79;56.93;101860.78;2089406;28;20180;-69
2022/05/10 00:21:32;;;;;;;5.77;3.23;;;;;;;12.91;56.77;101888.81;2089699;28;20421;-69
2022/05/10 00:22:33;;;;;;;5.03;3.47;;;;;;;12.73;56.50;101881.91;2081819;28;20184;-69
2022/05/10 00:23:33;;;;;;;6.43;3.40;;;;;;;12.77;56.54;101893.81;2080667;28;20581;-69
2022/05/10 00:24:34;;;;;;;9.33;3.53;;;;;;;12.67;56.69;101878.84;2072180;28;20189;-69
2022/05/10 00:25:34;;;;;;;7.77;3.90;;;;;;;12.67;56.70;101886.38;2080631;28;20588;-69
2022/05/10 00:26:35;;;;;;;7.07;3.90;;;;;;;12.72;57.08;101891.47;2081442;28;20620;-69
2022/05/10 00:27:35;;;;;;;9.00;4.23;;;;;;;12.67;57.22;101891.94;2081245;28;20173;-69
2022/05/10 00:28:36;;;;;;;8.10;4.07;;;;;;;12.66;57.48;101896.69;2081483;28;20287;-69
2022/05/10 00:29:36;;;;;;;7.07;4.03;;;;;;;12.66;57.47;101890.38;2081366;28;20176;-69
2022/05/10 00:30:38;;;;;;;10.27;4.20;;;;;;;11.29;57.50;101677.16;2080204;28;20177;-69
2022/05/10 00:31:38;;;;;;;9.60;4.43;;;;;;;12.65;57.62;101892.34;2080851;28;20187;-69
2022/05/10 00:32:40;;;;;;;7.30;4.00;;;;;;;12.51;58.04;101878.59;2081318;28;20476;-69
2022/05/10 00:33:41;;;;;;;5.97;3.60;;;;;;;12.51;58.01;101886.94;2081605;28;20208;-69
2022/05/10 00:34:43;;;;;;;10.70;3.93;;;;;;;12.36;58.44;101896.69;2080977;28;20912;-69
2022/05/10 00:35:44;;;;;;;6.23;3.80;;;;;;;12.16;58.71;101889.34;2081170;28;20259;-69
2022/05/10 00:36:45;;;;;;;5.70;4.00;;;;;;;12.12;59.17;101892.16;2081448;28;20420;-69
2022/05/10 00:37:48;;;;;;;6.60;3.70;;;;;;;12.13;59.15;101890.16;2080760;28;20181;-69
2022/05/10 00:38:49;;;;;;;5.37;3.60;;;;;;;12.14;59.40;101886.97;2081063;28;21158;-69
2022/05/10 00:39:50;;;;;;;7.57;4.00;;;;;;;12.17;59.37;101888.13;2081432;28;20414;-69
2022/05/10 00:40:50;;;;;;;7.67;4.13;;;;;;;12.18;59.49;101884.16;2080865;28;20673;-69
2022/05/10 00:42:06;;;;;;;5.10;3.87;;;;;;;12.19;59.55;101880.97;2081318;28;20986;-69
2022/05/10 00:43:31;;;;;;;5.63;3.60;;;;;;;12.00;59.75;101870.44;2081294;28;20165;-69
2022/05/10 00:44:49;;;;;;;6.40;3.73;;;;;;;12.20;59.26;101881.75;2080698;28;20406;-69
2022/05/10 00:46:01;;;;;;;6.30;4.47;;;;;;;12.14;59.47;101881.41;2080599;28;20427;-69
2022/05/10 00:47:14;;;;;;;7.73;3.80;;;;;;;12.10;59.83;101889.00;2073940;28;20471;-69
2022/05/10 00:48:31;;;;;;;5.77;3.80;;;;;;;12.09;60.09;101881.09;2080590;28;20425;-69
2022/05/10 00:49:59;;;;;;;8.03;4.03;;;;;;;12.09;59.97;101881.09;2081296;28;20407;-69
2022/05/10 00:51:14;;;;;;;7.43;3.80;;;;;;;12.13;60.15;101879.03;2080919;28;20404;-69
2022/05/10 00:52:42;;;;;;;6.70;3.50;;;;;;;12.07;60.06;101881.50;2081448;28;20632;-69
2022/05/10 00:53:51;;;;;;;9.23;3.80;;;;;;;12.16;59.96;101883.78;2081091;28;20432;-69
2022/05/10 00:55:11;;;;;;;8.23;4.20;;;;;;;12.16;60.19;101875.44;2080761;28;20495;-69
2022/05/10 00:56:39;;;;;;;8.33;4.37;;;;;;;12.19;59.76;101882.97;2081055;28;20392;-69
2022/05/10 00:57:46;;;;;;;10.40;4.53;;;;;;;12.20;60.04;101885.31;2073249;28;20409;-69
2022/05/10 00:59:13;;;;;;;15.13;4.47;;;;;;;12.01;60.51;101885.91;2073123;28;20397;-69
2022/05/10 01:00:21;;;;;;;12.50;4.73;;;;;;;12.03;60.54;101888.25;2072464;28;20532;-69
2022/05/10 01:01:32;;;;;;;12.10;4.50;;;;;;;11.98;60.65;101883.16;2072862;28;20476;-69
2022/05/10 01:03:05;;;;;;;12.57;4.30;;;;;;;11.95;60.86;101887.53;2073005;28;20393;-69
2022/05/10 01:04:27;;;;;;;8.90;4.43;;;;;;;11.94;60.50;101879.66;2072940;28;20400;-69
2022/05/10 01:05:39;;;;;;;9.53;4.17;;;;;;;11.95;60.73;101882.00;2072528;28;20423;-69
2022/05/10 01:06:55;;;;;;;7.37;4.53;;;;;;;11.89;60.69;101885.66;2073168;28;20794;-69
2022/05/10 01:07:55;;;;;;;9.83;4.20;;;;;;;11.90;60.51;101888.03;2073082;28;20404;-69
2022/05/10 01:09:28;;;;;;;8.60;4.00;;;;;;;11.87;60.88;101880.50;2072835;28;20464;-69
2022/05/10 01:10:38;;;;;;;10.23;4.10;;;;;;;11.92;60.97;101879.25;2067009;28;20188;-69
2022/05/10 01:11:44;;;;;;;8.90;4.13;;;;;;;11.94;61.25;101879.66;2072821;28;20428;-69
2022/05/10 01:12:57;;;;;;;6.73;3.90;;;;;;;11.95;61.24;101879.22;2072671;28;20420;-69
2022/05/10 01:14:31;;;;;;;8.40;4.03;;;;;;;11.99;60.94;101876.44;2072845;28;20408;-69
2022/05/10 01:15:34;;;;;;;16.27;4.53;;;;;;;12.02;60.99;101878.34;2067958;28;20425;-69
2022/05/10 01:16:35;;;;;;;24.33;6.60;;;;;;;12.00;61.10;101880.78;2089412;28;20437;-69
2022/05/10 01:17:36;;;;;;;33.33;7.37;;;;;;;12.03;61.02;101877.16;2089075;28;20492;-69
2022/05/10 01:18:38;;;;;;;19.03;5.20;;;;;;;12.08;60.93;101876.72;2089446;28;20180;-69
2022/05/10 01:19:42;;;;;;;32.00;6.90;;;;;;;12.10;61.06;101875.09;2089322;28;20444;-69
2022/05/10 01:20:45;;;;;;;34.40;8.13;;;;;;;11.88;61.09;101836.84;2088715;28;20411;-69
2022/05/10 01:22:11;;;;;;;26.17;7.13;;;;;;;12.17;60.99;101880.59;2087931;28;20426;-69
2022/05/10 01:23:21;;;;;;;20.73;6.20;;;;;;;12.19;60.91;101880.19;2077884;28;20486;-69
2022/05/10 01:24:31;;;;;;;23.73;5.27;;;;;;;12.23;60.97;101881.72;2080856;28;20799;-69
2022/05/10 01:25:54;;;;;;;13.37;4.93;;;;;;;12.23;61.16;101875.34;2080167;28;20485;-69
2022/05/10 01:27:18;;;;;;;14.47;4.60;;;;;;;11.38;60.85;101747.63;2080498;28;20403;-69
2022/05/10 01:28:45;;;;;;;15.87;5.13;;;;;;;12.32;60.93;101884.00;2081036;28;20993;-69
2022/05/10 01:30:05;;;;;;;17.93;4.93;;;;;;;12.30;61.17;101883.63;2080138;28;20431;-69
2022/05/10 01:31:21;;;;;;;16.83;4.37;;;;;;;12.36;60.92;101881.97;2074445;28;20446;-69
2022/05/10 01:34:11;;;;;;;12.17;3.87;;;;;;;12.37;60.81;101878.00;2081015;28;20388;-69
2022/05/10 01:35:20;;;;;;;10.53;4.30;;;;;;;12.39;60.91;101881.13;2079686;28;20458;-69
2022/05/10 01:36:32;;;;;;;10.33;3.83;;;;;;;12.41;61.07;101885.06;2072951;28;20439;-69
2022/05/10 01:37:37;;;;;;;10.57;3.90;;;;;;;12.35;60.92;101886.75;2080405;28;20484;-69
2022/05/10 01:38:45;;;;;;;11.13;4.37;;;;;;;12.39;60.83;101875.56;2080619;28;20470;-69
2022/05/10 01:40:04;;;;;;;14.10;4.57;;;;;;;12.36;60.36;101885.56;2080885;28;20451;-69
2022/05/10 01:41:12;;;;;;;12.63;4.93;;;;;;;12.22;61.01;101882.94;2080668;28;20465;-69
2022/05/10 01:42:20;;;;;;;17.93;4.97;;;;;;;12.22;60.95;101882.13;2080787;28;20410;-69
2022/05/10 01:43:34;;;;;;;18.17;5.20;;;;;;;12.27;60.36;101879.69;2080831;28;20538;-69
2022/05/10 01:44:46;;;;;;;12.63;4.23;;;;;;;12.27;60.03;101884.47;2080376;28;20456;-69
2022/05/10 01:45:59;;;;;;;14.37;4.87;;;;;;;12.24;60.21;101886.06;2080734;28;20487;-69
2022/05/10 01:47:14;;;;;;;13.20;4.87;;;;;;;12.24;60.56;101886.06;2081029;28;20851;-69
2022/05/10 01:48:19;;;;;;;12.17;4.90;;;;;;;12.26;60.57;101885.66;2080837;28;20542;-69
2022/05/10 01:49:37;;;;;;;8.80;4.30;;;;;;;12.24;60.65;101885.28;2080978;28;20402;-69
2022/05/10 01:50:47;;;;;;;11.90;4.50;;;;;;;12.19;61.39;101880.19;2079510;28;20431;-69
2022/05/10 01:52:09;;;;;;;11.77;4.93;;;;;;;12.19;61.53;101880.19;2080347;28;20411;-69
2022/05/10 01:53:13;;;;;;;10.20;4.17;;;;;;;12.19;61.27;101883.75;2080990;28;20446;-69
2022/05/10 01:54:41;;;;;;;9.27;4.40;;;;;;;12.18;61.50;101873.03;2080909;28;20451;-69
2022/05/10 01:55:45;;;;;;;20.77;5.27;;;;;;;12.14;61.64;101881.41;2080590;28;20392;-69
2022/05/10 01:56:46;;;;;;;21.63;5.50;;;;;;;12.16;61.76;101886.56;2080584;28;20407;-69
2022/05/10 01:57:47;;;;;;;18.87;5.97;;;;;;;12.17;61.67;101885.34;2080087;28;20419;-69
2022/05/10 01:58:48;;;;;;;16.63;5.67;;;;;;;12.20;61.66;101882.53;2080261;28;20180;-69
2022/05/10 01:59:55;;;;;;;16.20;5.60;;;;;;;12.18;61.59;101886.94;2080587;28;20214;-69
2022/05/10 02:01:00;;;;;;;18.17;5.50;;;;;;;12.19;61.73;101886.53;2080358;28;20391;-69
2022/05/10 02:02:05;;;;;;;18.77;5.43;;;;;;;12.19;61.66;101885.75;2080575;28;20430;-69
2022/05/10 02:03:14;;;;;;;11.63;4.23;;;;;;;12.20;62.06;101879.75;2080840;28;20862;-69
2022/05/10 02:04:23;;;;;;;15.30;5.40;;;;;;;12.22;62.04;101888.50;2080729;28;20862;-69
2022/05/10 02:05:37;;;;;;;18.87;5.60;;;;;;;12.26;61.97;101886.47;2079795;28;20437;-69
2022/05/10 02:06:52;;;;;;;19.53;5.90;;;;;;;11.03;61.52;101691.69;2080396;28;20403;-69
2022/05/10 02:07:57;;;;;;;21.87;6.10;;;;;;;12.31;61.52;101883.22;2080664;28;20924;-69
2022/05/10 02:09:07;;;;;;;21.67;5.80;;;;;;;12.32;61.02;101887.59;2080569;28;20493;-69
2022/05/10 02:10:28;;;;;;;18.67;4.97;;;;;;;12.33;60.63;101882.78;2080541;28;20518;-69
2022/05/10 02:11:31;;;;;;;13.40;4.93;;;;;;;12.35;60.00;101894.31;2080475;28;20980;-69
2022/05/10 02:13:05;;;;;;;10.90;3.90;;;;;;;12.35;59.52;101888.75;2080612;28;20416;-69
2022/05/10 02:14:09;;;;;;;6.80;3.70;;;;;;;12.30;59.52;101892.75;2080561;28;20450;-69
2022/05/10 02:15:13;;;;;;;6.43;3.60;;;;;;;12.26;59.25;101891.22;2084525;28;20429;-69
2022/05/10 02:16:46;;;;;;;8.37;4.00;;;;;;;12.19;59.35;101897.63;2088946;28;20415;-69
2022/05/10 02:17:56;;;;;;;6.23;3.93;;;;;;;12.11;59.76;101898.94;2087051;28;20462;-69
2022/05/10 02:19:05;;;;;;;6.17;4.07;;;;;;;12.05;59.97;101892.22;2089129;28;20399;-69
2022/05/10 02:20:18;;;;;;;11.47;4.50;;;;;;;12.04;59.77;101885.09;2088794;28;20820;-69
2022/05/10 02:21:24;;;;;;;8.57;3.97;;;;;;;12.01;59.49;101890.69;2088678;28;20398;-69
2022/05/10 02:22:37;;;;;;;8.60;3.90;;;;;;;11.95;59.54;101886.78;2082246;28;20430;-69
2022/05/10 02:23:55;;;;;;;9.33;3.77;;;;;;;11.91;59.46;101889.59;2080518;28;20502;-69
2022/05/10 02:25:01;;;;;;;7.03;3.80;;;;;;;10.87;59.25;101735.81;2079376;28;20427;-69
2022/05/10 02:26:12;;;;;;;6.33;3.50;;;;;;;11.73;59.01;101900.06;2081821;28;20402;-69
2022/05/10 02:27:20;;;;;;;5.83;4.20;;;;;;;11.81;59.45;101889.66;2082251;28;20471;-69
2022/05/10 02:28:51;;;;;;;9.50;3.87;;;;;;;11.77;59.24;101888.91;2082532;28;20418;-69
2022/05/10 02:30:12;;;;;;;6.17;3.60;;;;;;;11.70;59.22;101897.31;2082180;28;20454;-69
2022/05/10 02:31:19;;;;;;;8.73;3.83;;;;;;;10.90;59.04;101774.59;2082254;28;21059;-69
2022/05/10 02:33:48;;;;;;;9.87;4.43;;;;;;;11.42;59.22;101853.88;2082398;28;20713;-69
2022/05/10 02:34:50;;;;;;;9.23;4.53;;;;;;;11.63;59.68;101889.06;2081782;28;20430;-69
2022/05/10 02:35:57;;;;;;;8.00;4.53;;;;;;;11.18;59.61;101826.31;2082154;28;20418;-69
2022/05/10 02:36:57;;;;;;;9.60;3.93;;;;;;;11.37;59.70;101870.97;2082144;28;20971;-69
2022/05/10 02:37:58;;;;;;;7.60;4.07;;;;;;;11.60;59.70;101887.06;2082248;28;20820;-69
2022/05/10 02:38:58;;;;;;;7.93;3.90;;;;;;;11.57;59.66;101885.88;2082148;28;20169;-69
2022/05/10 02:40:00;;;;;;;6.10;3.73;;;;;;;11.57;59.94;101893.41;2082183;28;20655;-69
2022/05/10 02:41:04;;;;;;;6.40;3.90;;;;;;;11.57;60.19;101891.44;2081981;28;20180;-69
2022/05/10 02:42:09;;;;;;;7.60;4.50;;;;;;;11.56;59.98;101891.84;2082230;28;20425;-69
2022/05/10 02:43:17;;;;;;;6.87;4.00;;;;;;;11.52;59.84;101893.88;2082597;28;20414;-69
2022/05/10 02:44:18;;;;;;;11.03;4.13;;;;;;;11.47;60.11;101905.41;2082136;28;20418;-69
2022/05/10 02:45:18;;;;;;;7.80;3.67;;;;;;;11.46;60.03;101898.25;2081534;28;20416;-69
2022/05/10 02:46:19;;;;;;;9.10;3.70;;;;;;;11.42;59.20;101901.06;2082495;28;20177;-69
2022/05/10 02:47:35;;;;;;;18.40;5.60;;;;;;;11.32;59.19;101912.25;2082250;28;20229;-71
2022/05/10 02:48:37;;;;;;;20.80;6.07;;;;;;;11.19;59.22;101908.34;2082376;28;20447;-71
2022/05/10 02:49:39;;;;;;;12.53;4.40;;;;;;;10.63;58.97;101842.09;2081644;28;20500;-71
2022/05/10 02:50:39;;;;;;;27.20;4.43;;;;;;;11.01;59.34;101905.69;2081339;28;21003;-71
2022/05/10 02:51:40;;;;;;;30.47;5.47;;;;;;;11.05;58.97;101912.00;2082512;28;20831;-71
2022/05/10 02:52:41;;;;;;;33.77;4.90;;;;;;;11.07;58.77;101914.38;2082416;28;20203;-71
2022/05/10 02:53:42;;;;;;;14.57;4.40;;;;;;;11.07;59.24;101909.59;2082394;28;20173;-71
2022/05/10 02:54:42;;;;;;;5.20;3.90;;;;;;;10.83;59.30;101874.47;2082008;28;20173;-71
2022/05/10 02:55:51;;;;;;;6.57;3.60;;;;;;;11.08;59.60;101918.72;2082028;28;20447;-71
2022/05/10 02:56:52;;;;;;;5.37;3.40;;;;;;;11.02;59.98;101910.03;2082228;28;20169;-71
2022/05/10 02:57:59;;;;;;;6.00;3.73;;;;;;;10.16;59.76;101781.72;2082422;28;20446;-71
2022/05/10 02:58:59;;;;;;;5.53;3.90;;;;;;;11.05;60.13;101916.75;2082210;28;20924;-71
2022/05/10 03:00:03;;;;;;;7.13;3.63;;;;;;;11.04;60.38;101918.75;2082089;28;20789;-71
2022/05/10 03:01:07;;;;;;;8.10;4.10;;;;;;;11.05;60.54;101917.56;2081755;28;20199;-71
2022/05/10 03:02:22;;;;;;;15.03;4.90;;;;;;;11.06;60.74;101923.91;2082228;28;20415;-71
2022/05/10 03:03:26;;;;;;;7.80;4.30;;;;;;;10.90;60.72;101898.59;2082200;28;20399;-71
2022/05/10 03:04:38;;;;;;;7.73;4.33;;;;;;;11.10;60.79;101919.09;2081887;28;20411;-71
2022/05/10 03:05:39;;;;;;;6.73;4.17;;;;;;;11.10;60.48;101922.69;2081917;28;20422;-71
2022/05/10 03:06:42;;;;;;;6.50;4.40;;;;;;;10.51;60.54;101825.94;2082306;28;20420;-71
2022/05/10 03:07:42;;;;;;;6.63;3.87;;;;;;;11.12;60.42;101927.81;2082188;28;20208;-71
2022/05/10 03:08:44;;;;;;;8.73;4.10;;;;;;;11.10;60.19;101919.91;2082126;28;21019;-71
2022/05/10 03:09:45;;;;;;;12.87;5.37;;;;;;;11.05;60.23;101923.09;2082110;28;20204;-71
2022/05/10 03:10:45;;;;;;;18.17;5.17;;;;;;;10.66;60.06;101869.78;2081674;28;20960;-71
2022/05/10 03:11:46;;;;;;;16.43;5.00;;;;;;;11.08;59.95;101922.31;2082069;28;20759;-71
2022/05/10 03:12:46;;;;;;;13.83;5.30;;;;;;;11.01;59.79;101918.78;2082075;28;20210;-71
2022/05/10 03:13:47;;;;;;;13.80;5.30;;;;;;;11.08;59.75;101933.41;2082050;28;20243;-71
2022/05/10 03:14:48;;;;;;;10.27;5.10;;;;;;;11.03;59.94;101925.50;2083119;28;20180;-71
2022/05/10 03:15:49;;;;;;;8.83;4.90;;;;;;;10.58;60.17;101859.94;2090123;28;20418;-71
2022/05/10 03:16:49;;;;;;;12.17;5.00;;;;;;;10.79;59.92;101909.75;2090469;28;20182;-71
2022/05/10 03:17:50;;;;;;;10.00;4.80;;;;;;;10.94;59.79;101908.50;2089441;28;20255;-71
2022/05/10 03:18:52;;;;;;;10.33;4.97;;;;;;;9.99;60.02;101765.94;2089818;28;20178;-71
2022/05/10 03:19:52;;;;;;;15.63;5.65;;;;;;;10.39;59.63;101835.47;2090262;28;20283;-71
2022/05/10 03:20:53;;;;;;;8.73;4.70;;;;;;;11.02;59.95;101920.34;2089691;28;20274;-71
2022/05/10 03:21:54;;;;;;;9.87;4.00;;;;;;;10.94;60.23;101907.69;2088030;28;20180;-71
2022/05/10 03:22:54;;;;;;;8.60;4.20;;;;;;;11.02;59.92;101923.91;2081844;28;20781;-71
2022/05/10 03:23:55;;;;;;;9.00;4.43;;;;;;;10.59;59.94;101858.75;2082070;28;20465;-71
2022/05/10 03:24:55;;;;;;;8.53;4.50;;;;;;;11.02;60.04;101921.13;2081606;28;20230;-71
2022/05/10 03:25:57;;;;;;;8.93;5.30;;;;;;;10.91;60.20;101905.75;2082034;28;20173;-71
2022/05/10 03:27:00;;;;;;;9.73;4.40;;;;;;;10.96;60.16;101921.97;2082127;28;20173;-71
2022/05/10 03:28:00;;;;;;;9.93;4.80;;;;;;;10.91;60.53;101928.72;2082027;28;20933;-71
2022/05/10 03:29:02;;;;;;;10.00;4.93;;;;;;;10.68;60.36;101910.97;2082066;28;20827;-71
2022/05/10 03:30:04;;;;;;;11.20;4.43;;;;;;;10.73;60.16;101910.56;2081259;28;20181;-71
2022/05/10 03:31:07;;;;;;;10.07;4.30;;;;;;;10.64;60.51;101922.09;2080970;28;20479;-71
2022/05/10 03:32:09;;;;;;;8.93;3.93;;;;;;;10.63;60.39;101925.25;2082030;28;20416;-71
2022/05/10 03:33:09;;;;;;;7.73;3.80;;;;;;;9.50;60.46;101753.00;2082054;28;20510;-71
2022/05/10 03:35:29;;;;;;;5.47;3.43;;;;;;;10.67;60.37;101931.59;2081758;28;20171;-71
2022/05/10 03:36:30;;;;;;;6.30;3.93;;;;;;;10.65;60.38;101926.44;2081409;28;20423;-71
2022/05/10 03:37:31;;;;;;;7.57;3.97;;;;;;;10.64;60.28;101926.84;2082214;28;20177;-71
2022/05/10 03:38:32;;;;;;;7.70;4.37;;;;;;;10.25;60.21;101867.97;2081329;28;20180;-71
2022/05/10 03:39:35;;;;;;;8.83;3.80;;;;;;;10.66;60.43;101935.56;2081323;28;20236;-71
2022/05/10 03:40:35;;;;;;;8.73;4.23;;;;;;;10.67;60.64;101924.03;2081833;28;20423;-71
2022/05/10 03:41:36;;;;;;;7.70;3.90;;;;;;;10.71;60.80;101926.81;2082008;28;20418;-71
2022/05/10 03:42:48;;;;;;;7.90;4.27;;;;;;;10.28;60.80;101848.56;2082227;28;20263;-71
2022/05/10 03:43:49;;;;;;;7.33;4.00;;;;;;;10.77;60.58;101917.66;2081900;28;20160;-71
2022/05/10 03:44:52;;;;;;;7.83;3.80;;;;;;;10.79;60.75;101923.63;2081619;28;20422;-71
2022/05/10 03:45:53;;;;;;;8.15;4.18;;;;;;;10.83;60.54;101924.41;2082208;28;20263;-71
2022/05/10 03:46:53;;;;;;;9.83;4.50;;;;;;;10.84;60.35;101917.66;2081982;28;20179;-71
2022/05/10 03:47:54;;;;;;;11.70;4.63;;;;;;;10.74;60.56;101901.06;2081876;28;20233;-71
2022/05/10 03:48:55;;;;;;;11.30;4.90;;;;;;;10.89;60.27;101924.75;2081809;28;20296;-71
2022/05/10 03:49:56;;;;;;;10.73;4.73;;;;;;;10.90;60.30;101929.91;2081881;28;20416;-71
2022/05/10 03:50:56;;;;;;;10.70;4.70;;;;;;;10.90;60.33;101927.13;2081570;28;20370;-71
2022/05/10 03:51:57;;;;;;;8.10;4.53;;;;;;;10.92;60.18;101919.19;2081906;28;20419;-71
2022/05/10 03:52:58;;;;;;;11.83;4.20;;;;;;;10.76;60.45;101895.91;2081897;28;20180;-71
2022/05/10 03:53:58;;;;;;;11.00;4.37;;;;;;;10.93;60.56;101923.56;2081853;28;20208;-71
2022/05/10 03:54:59;;;;;;;7.37;4.17;;;;;;;10.21;60.45;101814.56;2081473;28;20187;-71
2022/05/10 03:55:59;;;;;;;9.80;3.60;;;;;;;10.97;60.32;101927.09;2081888;28;20206;-71
2022/05/10 03:57:00;;;;;;;6.97;3.70;;;;;;;10.97;60.69;101926.31;2081672;28;20720;-71
2022/05/10 03:58:04;;;;;;;6.60;3.80;;;;;;;10.97;60.82;101931.88;2081994;28;20183;-71
2022/05/10 03:59:04;;;;;;;6.80;3.93;;;;;;;10.98;60.52;101939.78;2081868;28;20201;-71
2022/05/10 04:00:09;;;;;;;11.17;4.23;;;;;;;10.93;60.42;101931.88;2081651;28;20952;-70
2022/05/10 04:01:10;;;;;;;7.00;4.00;;;;;;;10.81;60.09;101924.00;2081615;28;20277;-71
2022/05/10 04:02:12;;;;;;;7.20;4.10;;;;;;;10.95;60.51;101931.47;2081838;28;20420;-71
2022/05/10 04:03:12;;;;;;;12.90;5.27;;;;;;;10.97;60.33;101932.63;2081834;28;20188;-71
2022/05/10 04:04:14;;;;;;;16.93;6.07;;;;;;;11.00;60.48;101933.81;2081821;28;20506;-71
2022/05/10 04:05:17;;;;;;;14.13;5.27;;;;;;;11.03;60.28;101935.78;2081232;28;20673;-71
2022/05/10 04:06:18;;;;;;;9.77;4.50;;;;;;;11.07;60.78;101940.13;2081031;28;20916;-71
2022/05/10 04:07:18;;;;;;;11.13;4.00;;;;;;;11.11;60.53;101931.78;2081150;28;20415;-71
2022/05/10 04:08:19;;;;;;;9.57;3.83;;;;;;;11.14;60.71;101933.75;2081531;28;20180;-71
2022/05/10 04:09:19;;;;;;;9.53;3.97;;;;;;;11.14;61.10;101940.09;2081753;28;20707;-71
2022/05/10 04:10:22;;;;;;;6.83;3.60;;;;;;;11.10;61.29;101938.53;2081228;28;20224;-71
2022/05/10 04:11:23;;;;;;;10.70;4.60;;;;;;;11.22;61.18;101947.19;2081650;28;20235;-71
2022/05/10 04:12:24;;;;;;;10.90;4.93;;;;;;;11.24;61.21;101950.34;2081623;28;20423;-71
2022/05/10 04:13:24;;;;;;;10.37;5.30;;;;;;;10.70;61.20;101858.69;2081726;28;20427;-71
2022/05/10 04:14:25;;;;;;;8.03;4.80;;;;;;;11.34;61.07;101960.59;2081563;28;20227;-71
2022/05/10 04:15:26;;;;;;;7.87;4.60;;;;;;;10.75;61.25;101847.97;2087941;28;20172;-71
2022/05/10 04:16:26;;;;;;;11.83;5.07;;;;;;;11.46;61.13;101949.03;2090035;28;20446;-71
2022/05/10 04:17:27;;;;;;;8.37;4.50;;;;;;;10.63;60.96;101825.47;2089685;28;20216;-71
2022/05/10 04:18:28;;;;;;;14.07;5.20;;;;;;;11.49;60.84;101956.53;2089720;28;20678;-71
2022/05/10 04:19:28;;;;;;;9.63;3.93;;;;;;;10.61;60.93;101820.31;2089853;28;20206;-69
2022/05/10 04:20:29;;;;;;;18.03;5.70;;;;;;;10.62;60.74;101818.34;2089416;28;20187;-69
2022/05/10 04:21:30;;;;;;;11.77;4.40;;;;;;;11.54;60.84;101953.31;2089706;28;20183;-69
2022/05/10 04:22:30;;;;;;;14.23;5.43;;;;;;;11.04;60.65;101874.38;2082218;28;20719;-69
2022/05/10 04:23:31;;;;;;;17.23;4.83;;;;;;;11.54;60.62;101947.00;2081327;28;20687;-69
2022/05/10 04:24:32;;;;;;;11.67;4.73;;;;;;;11.66;60.61;101952.88;2081042;28;20222;-69
2022/05/10 04:25:32;;;;;;;11.40;4.67;;;;;;;11.71;60.50;101957.19;2081226;28;20478;-69
2022/05/10 04:26:33;;;;;;;15.10;4.60;;;;;;;11.74;60.33;101964.72;2081321;28;20666;-69
2022/05/10 04:27:33;;;;;;;10.80;4.60;;;;;;;11.78;60.13;101963.50;2081377;28;20647;-69
2022/05/10 04:28:35;;;;;;;13.23;4.17;;;;;;;11.82;60.35;101960.69;2081586;28;20196;-69
2022/05/10 04:29:36;;;;;;;9.97;4.63;;;;;;;11.83;60.36;101956.72;2081433;28;20662;-69
2022/05/10 04:30:36;;;;;;;9.30;4.30;;;;;;;11.87;60.32;101954.69;2081020;28;20919;-69
2022/05/10 04:31:37;;;;;;;8.57;4.30;;;;;;;11.92;60.41;101955.06;2081520;28;20177;-69
2022/05/10 04:32:38;;;;;;;12.00;4.73;;;;;;;10.91;60.37;101792.03;2081251;28;20208;-69
2022/05/10 04:33:39;;;;;;;11.93;5.00;;;;;;;11.96;60.27;101946.69;2080831;28;20670;-69
2022/05/10 04:34:39;;;;;;;9.03;5.10;;;;;;;12.08;60.25;101957.28;2080945;28;20200;-69
2022/05/10 04:35:40;;;;;;;10.53;5.20;;;;;;;12.15;60.09;101958.00;2081040;28;20875;-69
2022/05/10 04:36:41;;;;;;;13.27;7.37;;;;;;;12.18;60.22;101959.97;2081541;28;20264;-69
2022/05/10 04:37:41;;;;;;;15.63;6.17;;;;;;;12.14;60.07;101945.31;2081214;28;20175;-69
2022/05/10 04:38:45;;;;;;;10.50;5.27;;;;;;;12.26;60.19;101961.50;2088602;28;20173;-69
2022/05/10 04:42:24;;;;;;;14.27;5.60;;;;;;;12.42;60.45;101967.31;2075475;28;20427;-69
2022/05/10 04:43:24;;;;;;;14.53;5.37;;;;;;;12.46;60.61;101965.25;2080524;28;20533;-69
2022/05/10 04:44:25;;;;;;;11.73;5.50;;;;;;;11.22;60.77;101766.81;2087270;28;20185;-69
2022/05/10 04:45:25;;;;;;;12.87;4.80;;;;;;;12.56;60.77;101960.81;2080542;28;20187;-69
2022/05/10 04:46:28;;;;;;;10.90;4.53;;;;;;;12.55;60.93;101968.34;2073740;28;20200;-69
2022/05/10 04:47:28;;;;;;;18.27;5.30;;;;;;;12.37;61.26;101953.06;2072011;28;20185;-69
2022/05/10 04:48:29;;;;;;;15.00;4.80;;;;;;;12.60;61.51;101967.91;2076167;28;20546;-69
2022/05/10 04:49:29;;;;;;;13.27;4.43;;;;;;;12.54;61.63;101949.28;2077224;28;20211;-69
2022/05/10 04:50:30;;;;;;;9.40;4.30;;;;;;;12.71;61.56;101962.22;2077516;28;20197;-69
2022/05/10 04:51:31;;;;;;;12.23;4.63;;;;;;;12.80;61.51;101970.88;2074180;28;20502;-69
2022/05/10 04:52:31;;;;;;;17.07;5.10;;;;;;;12.92;61.42;101976.66;2081621;28;20663;-69
2022/05/10 04:53:32;;;;;;;23.37;7.40;;;;;;;12.30;61.35;101880.84;2077963;28;20196;-69
2022/05/10 04:54:33;;;;;;;23.90;7.67;;;;;;;13.05;61.21;101974.16;2072721;28;20272;-69
2022/05/10 04:55:34;;;;;;;24.40;8.23;;;;;;;11.86;61.32;101773.38;2076412;28;20455;-69
2022/05/10 04:56:34;;;;;;;21.83;7.20;;;;;;;12.62;61.10;101892.41;2076484;28;20246;-69
2022/05/10 04:57:38;;;;;;;11.60;5.20;;;;;;;13.26;61.21;101988.59;2079820;28;20185;-69
2022/05/10 04:58:39;;;;;;;16.27;5.60;;;;;;;12.57;61.06;101860.28;2079196;28;20264;-69
2022/05/10 04:59:40;;;;;;;14.03;5.70;;;;;;;13.47;60.88;101979.16;2079359;28;20456;-69
2022/05/10 05:00:40;;;;;;;21.17;5.67;;;;;;;13.25;60.63;101936.91;2079033;28;20205;-69
2022/05/10 05:01:41;;;;;;;13.10;5.50;;;;;;;12.87;60.45;101862.28;2075938;28;20667;-69
2022/05/10 05:02:42;;;;;;;12.57;5.43;;;;;;;12.94;60.22;101881.63;2079658;28;20189;-69
2022/05/10 05:03:45;;;;;;;8.10;5.00;;;;;;;13.71;60.24;101970.44;2079988;28;20221;-69
2022/05/10 05:04:46;;;;;;;8.60;5.20;;;;;;;13.87;60.26;101976.16;2079703;28;20832;-69
2022/05/10 05:05:47;;;;;;;13.17;5.53;;;;;;;13.94;60.02;101975.25;2080075;28;20447;-69
2022/05/10 05:06:49;;;;;;;15.47;5.53;;;;;;;13.84;60.10;101960.25;2080193;28;20174;-68
2022/05/10 05:07:49;;;;;;;15.13;5.27;;;;;;;13.89;59.65;101945.84;2080111;28;20653;-68
2022/05/10 05:08:50;;;;;;;11.90;5.33;;;;;;;14.19;59.46;101978.41;2079834;28;20882;-69
2022/05/10 05:09:51;;;;;;;12.30;5.70;;;;;;;14.19;59.59;101968.06;2079450;28;20572;-69